Hertford, North Carolina
Current Conditions -  °F | °C
As of 7:15 AM on Tuesday 27 Jan 2015 (Local Time) from KEDE Reporting Station
Light Snow Light Snow  
Wind Chill: 24°   Ceiling: 1700
Heat Index: 32°   Visibility: 7mi
Dew Point: 29°   Wind: 10mph
Humidity: 88%   Direction: 340°NNW
Pressure: 29.75"   Gusts: NA
Location:  36.19°N, 76.47°W
Report Text: KEDE 271215Z AUTO 34009KT 7SM -SN OVC017 00/M02 A2975 RMK AO2 T00011016
Loading
Personal Weather Stations






























Interactive Weather Map New forecast layout! Learn more

10-Day Weather Forecast

Advertisements
Track Severe Weather on mobile